sensor_id;sensor_type;location;lat;lon;timestamp;P1;durP1;ratioP1;P2;durP2;ratioP2
85506;SDS011;75915;41.988;21.460;2024-03-22T00:01:53;64.78;;;26.05;;
85506;SDS011;75915;41.988;21.460;2024-03-22T00:04:19;57.42;;;22.02;;
85506;SDS011;75915;41.988;21.460;2024-03-22T00:06:49;47.80;;;20.92;;
85506;SDS011;75915;41.988;21.460;2024-03-22T00:09:15;61.65;;;25.52;;
85506;SDS011;75915;41.988;21.460;2024-03-22T00:11:42;61.08;;;26.45;;
85506;SDS011;75915;41.988;21.460;2024-03-22T00:16:34;57.83;;;21.77;;
85506;SDS011;75915;41.988;21.460;2024-03-22T00:19:03;51.03;;;22.98;;
85506;SDS011;75915;41.988;21.460;2024-03-22T00:21:29;57.25;;;25.75;;
85506;SDS011;75915;41.988;21.460;2024-03-22T00:23:55;62.45;;;24.70;;
85506;SDS011;75915;41.988;21.460;2024-03-22T00:28:47;47.88;;;19.98;;
85506;SDS011;75915;41.988;21.460;2024-03-22T00:31:12;37.47;;;18.88;;
85506;SDS011;75915;41.988;21.460;2024-03-22T00:33:38;48.67;;;21.50;;
85506;SDS011;75915;41.988;21.460;2024-03-22T00:36:03;50.35;;;21.80;;
85506;SDS011;75915;41.988;21.460;2024-03-22T00:38:29;52.58;;;21.27;;
85506;SDS011;75915;41.988;21.460;2024-03-22T00:40:55;40.97;;;18.05;;
85506;SDS011;75915;41.988;21.460;2024-03-22T00:43:22;39.25;;;17.65;;
85506;SDS011;75915;41.988;21.460;2024-03-22T00:45:48;31.75;;;16.55;;
85506;SDS011;75915;41.988;21.460;2024-03-22T00:48:13;40.60;;;18.05;;
85506;SDS011;75915;41.988;21.460;2024-03-22T00:50:39;40.70;;;18.50;;
85506;SDS011;75915;41.988;21.460;2024-03-22T00:53:05;38.90;;;16.65;;
85506;SDS011;75915;41.988;21.460;2024-03-22T00:55:33;39.45;;;18.10;;
85506;SDS011;75915;41.988;21.460;2024-03-22T00:58:01;34.03;;;17.17;;
85506;SDS011;75915;41.988;21.460;2024-03-22T01:00:28;40.88;;;18.83;;
85506;SDS011;75915;41.988;21.460;2024-03-22T01:02:56;34.92;;;16.35;;
85506;SDS011;75915;41.988;21.460;2024-03-22T01:05:27;36.30;;;16.40;;
85506;SDS011;75915;41.988;21.460;2024-03-22T01:07:53;33.53;;;15.63;;
85506;SDS011;75915;41.988;21.460;2024-03-22T01:10:24;30.65;;;15.00;;
85506;SDS011;75915;41.988;21.460;2024-03-22T01:21:09;37.38;;;15.23;;
85506;SDS011;75915;41.988;21.460;2024-03-22T01:29:21;36.47;;;14.65;;
85506;SDS011;75915;41.988;21.460;2024-03-22T01:31:50;31.38;;;13.98;;
85506;SDS011;75915;41.988;21.460;2024-03-22T01:34:18;35.50;;;14.73;;
85506;SDS011;75915;41.988;21.460;2024-03-22T01:36:43;36.47;;;14.35;;
85506;SDS011;75915;41.988;21.460;2024-03-22T01:39:10;29.65;;;14.48;;
85506;SDS011;75915;41.988;21.460;2024-03-22T01:41:36;37.17;;;16.95;;
85506;SDS011;75915;41.988;21.460;2024-03-22T01:44:01;35.05;;;18.30;;
85506;SDS011;75915;41.988;21.460;2024-03-22T01:46:27;46.45;;;17.80;;
85506;SDS011;75915;41.988;21.460;2024-03-22T01:48:53;36.05;;;17.45;;
85506;SDS011;75915;41.988;21.460;2024-03-22T01:51:19;39.08;;;17.95;;
85506;SDS011;75915;41.988;21.460;2024-03-22T01:53:45;40.17;;;18.48;;
85506;SDS011;75915;41.988;21.460;2024-03-22T01:56:10;44.15;;;19.15;;
85506;SDS011;75915;41.988;21.460;2024-03-22T01:58:36;44.22;;;18.10;;
85506;SDS011;75915;41.988;21.460;2024-03-22T02:01:01;45.60;;;18.73;;
85506;SDS011;75915;41.988;21.460;2024-03-22T02:03:27;37.03;;;17.23;;
85506;SDS011;75915;41.988;21.460;2024-03-22T02:05:52;45.72;;;18.20;;
85506;SDS011;75915;41.988;21.460;2024-03-22T02:08:18;46.45;;;19.63;;
85506;SDS011;75915;41.988;21.460;2024-03-22T02:10:44;45.72;;;18.42;;
85506;SDS011;75915;41.988;21.460;2024-03-22T02:13:10;42.17;;;19.95;;
85506;SDS011;75915;41.988;21.460;2024-03-22T02:15:36;45.15;;;18.80;;
85506;SDS011;75915;41.988;21.460;2024-03-22T02:18:05;46.88;;;19.98;;
85506;SDS011;75915;41.988;21.460;2024-03-22T02:20:31;35.03;;;16.58;;
85506;SDS011;75915;41.988;21.460;2024-03-22T02:22:58;33.88;;;13.85;;
85506;SDS011;75915;41.988;21.460;2024-03-22T02:25:24;31.75;;;14.07;;
85506;SDS011;75915;41.988;21.460;2024-03-22T02:27:49;29.58;;;12.38;;
85506;SDS011;75915;41.988;21.460;2024-03-22T02:30:15;20.92;;;9.68;;
85506;SDS011;75915;41.988;21.460;2024-03-22T02:32:42;18.08;;;8.73;;
85506;SDS011;75915;41.988;21.460;2024-03-22T02:35:07;18.15;;;8.05;;
85506;SDS011;75915;41.988;21.460;2024-03-22T02:37:33;20.92;;;7.63;;
85506;SDS011;75915;41.988;21.460;2024-03-22T02:39:59;14.05;;;6.47;;
85506;SDS011;75915;41.988;21.460;2024-03-22T02:42:24;15.45;;;6.60;;
85506;SDS011;75915;41.988;21.460;2024-03-22T02:44:52;14.57;;;6.47;;
85506;SDS011;75915;41.988;21.460;2024-03-22T02:47:17;14.95;;;5.70;;
85506;SDS011;75915;41.988;21.460;2024-03-22T02:49:43;12.90;;;5.93;;
85506;SDS011;75915;41.988;21.460;2024-03-22T02:52:09;10.75;;;5.22;;
85506;SDS011;75915;41.988;21.460;2024-03-22T02:54:34;14.95;;;5.20;;
85506;SDS011;75915;41.988;21.460;2024-03-22T02:57:00;11.80;;;6.05;;
85506;SDS011;75915;41.988;21.460;2024-03-22T02:59:27;14.88;;;5.93;;
85506;SDS011;75915;41.988;21.460;2024-03-22T03:01:54;12.65;;;6.32;;
85506;SDS011;75915;41.988;21.460;2024-03-22T03:04:19;14.05;;;5.57;;
85506;SDS011;75915;41.988;21.460;2024-03-22T03:06:45;12.88;;;6.40;;
85506;SDS011;75915;41.988;21.460;2024-03-22T03:09:11;15.32;;;6.60;;
85506;SDS011;75915;41.988;21.460;2024-03-22T03:11:40;12.25;;;5.45;;
85506;SDS011;75915;41.988;21.460;2024-03-22T03:14:07;13.35;;;6.78;;
85506;SDS011;75915;41.988;21.460;2024-03-22T03:16:33;13.82;;;5.57;;
85506;SDS011;75915;41.988;21.460;2024-03-22T03:18:58;14.63;;;7.13;;
85506;SDS011;75915;41.988;21.460;2024-03-22T03:21:24;13.52;;;6.22;;
85506;SDS011;75915;41.988;21.460;2024-03-22T03:23:49;13.50;;;5.85;;
85506;SDS011;75915;41.988;21.460;2024-03-22T03:26:15;10.80;;;5.03;;
85506;SDS011;75915;41.988;21.460;2024-03-22T03:28:40;15.43;;;6.50;;
85506;SDS011;75915;41.988;21.460;2024-03-22T03:31:06;16.88;;;6.55;;
85506;SDS011;75915;41.988;21.460;2024-03-22T03:33:32;14.75;;;5.75;;
85506;SDS011;75915;41.988;21.460;2024-03-22T03:35:58;16.75;;;7.00;;
85506;SDS011;75915;41.988;21.460;2024-03-22T03:38:24;19.95;;;9.65;;
85506;SDS011;75915;41.988;21.460;2024-03-22T03:40:49;22.20;;;11.05;;
85506;SDS011;75915;41.988;21.460;2024-03-22T03:43:16;25.48;;;11.68;;
85506;SDS011;75915;41.988;21.460;2024-03-22T03:45:41;29.10;;;11.68;;
85506;SDS011;75915;41.988;21.460;2024-03-22T03:48:07;23.45;;;11.27;;
85506;SDS011;75915;41.988;21.460;2024-03-22T03:50:32;28.88;;;12.05;;
85506;SDS011;75915;41.988;21.460;2024-03-22T03:52:59;22.30;;;10.50;;
85506;SDS011;75915;41.988;21.460;2024-03-22T03:55:24;23.00;;;10.18;;
85506;SDS011;75915;41.988;21.460;2024-03-22T03:57:51;21.98;;;11.07;;
85506;SDS011;75915;41.988;21.460;2024-03-22T04:00:20;20.35;;;9.77;;
85506;SDS011;75915;41.988;21.460;2024-03-22T04:02:48;18.73;;;9.57;;
85506;SDS011;75915;41.988;21.460;2024-03-22T04:05:15;22.00;;;10.45;;
85506;SDS011;75915;41.988;21.460;2024-03-22T04:07:41;23.23;;;10.18;;
85506;SDS011;75915;41.988;21.460;2024-03-22T04:10:07;21.38;;;10.85;;
85506;SDS011;75915;41.988;21.460;2024-03-22T04:12:34;23.95;;;10.30;;
85506;SDS011;75915;41.988;21.460;2024-03-22T04:15:01;18.38;;;8.63;;
85506;SDS011;75915;41.988;21.460;2024-03-22T04:17:27;19.38;;;9.40;;
85506;SDS011;75915;41.988;21.460;2024-03-22T04:19:52;21.27;;;8.55;;
85506;SDS011;75915;41.988;21.460;2024-03-22T04:22:18;21.88;;;10.23;;
85506;SDS011;75915;41.988;21.460;2024-03-22T04:24:43;29.25;;;9.77;;
85506;SDS011;75915;41.988;21.460;2024-03-22T04:27:09;19.48;;;9.10;;
85506;SDS011;75915;41.988;21.460;2024-03-22T04:29:34;24.00;;;10.07;;
85506;SDS011;75915;41.988;21.460;2024-03-22T04:32:01;28.40;;;10.57;;
85506;SDS011;75915;41.988;21.460;2024-03-22T04:34:27;25.08;;;10.82;;
85506;SDS011;75915;41.988;21.460;2024-03-22T04:36:52;25.20;;;10.27;;
85506;SDS011;75915;41.988;21.460;2024-03-22T04:39:22;29.98;;;10.85;;
85506;SDS011;75915;41.988;21.460;2024-03-22T04:41:49;24.48;;;10.93;;
85506;SDS011;75915;41.988;21.460;2024-03-22T04:44:14;24.08;;;10.77;;
85506;SDS011;75915;41.988;21.460;2024-03-22T04:46:40;28.58;;;10.63;;
85506;SDS011;75915;41.988;21.460;2024-03-22T04:49:05;24.00;;;10.52;;
85506;SDS011;75915;41.988;21.460;2024-03-22T04:51:32;23.20;;;10.75;;
85506;SDS011;75915;41.988;21.460;2024-03-22T04:53:57;23.00;;;9.55;;
85506;SDS011;75915;41.988;21.460;2024-03-22T04:56:23;22.92;;;10.57;;
85506;SDS011;75915;41.988;21.460;2024-03-22T04:58:49;20.60;;;10.43;;
85506;SDS011;75915;41.988;21.460;2024-03-22T05:01:15;21.60;;;10.10;;
85506;SDS011;75915;41.988;21.460;2024-03-22T05:03:42;26.70;;;11.95;;
85506;SDS011;75915;41.988;21.460;2024-03-22T05:06:07;22.60;;;11.63;;
85506;SDS011;75915;41.988;21.460;2024-03-22T05:08:34;28.05;;;12.15;;
85506;SDS011;75915;41.988;21.460;2024-03-22T05:10:59;28.02;;;12.57;;
85506;SDS011;75915;41.988;21.460;2024-03-22T05:13:25;29.15;;;12.88;;
85506;SDS011;75915;41.988;21.460;2024-03-22T05:15:50;24.85;;;10.90;;
85506;SDS011;75915;41.988;21.460;2024-03-22T05:18:16;26.67;;;12.07;;
85506;SDS011;75915;41.988;21.460;2024-03-22T05:20:43;26.95;;;12.05;;
85506;SDS011;75915;41.988;21.460;2024-03-22T05:23:09;31.52;;;13.43;;
85506;SDS011;75915;41.988;21.460;2024-03-22T05:25:36;25.67;;;10.90;;
85506;SDS011;75915;41.988;21.460;2024-03-22T05:28:02;26.13;;;12.05;;
85506;SDS011;75915;41.988;21.460;2024-03-22T05:30:28;28.23;;;13.50;;
85506;SDS011;75915;41.988;21.460;2024-03-22T05:32:54;27.17;;;11.45;;
85506;SDS011;75915;41.988;21.460;2024-03-22T05:35:19;24.27;;;9.88;;
85506;SDS011;75915;41.988;21.460;2024-03-22T05:37:45;22.48;;;10.00;;
85506;SDS011;75915;41.988;21.460;2024-03-22T05:40:11;25.13;;;11.55;;
85506;SDS011;75915;41.988;21.460;2024-03-22T05:42:37;23.50;;;10.50;;
85506;SDS011;75915;41.988;21.460;2024-03-22T05:45:02;23.98;;;10.93;;
85506;SDS011;75915;41.988;21.460;2024-03-22T05:47:28;29.77;;;12.50;;
85506;SDS011;75915;41.988;21.460;2024-03-22T05:49:56;24.55;;;11.13;;
85506;SDS011;75915;41.988;21.460;2024-03-22T05:52:23;22.90;;;10.25;;
85506;SDS011;75915;41.988;21.460;2024-03-22T05:54:49;25.35;;;11.45;;
85506;SDS011;75915;41.988;21.460;2024-03-22T05:57:16;28.52;;;12.55;;
85506;SDS011;75915;41.988;21.460;2024-03-22T05:59:42;24.85;;;10.85;;
85506;SDS011;75915;41.988;21.460;2024-03-22T06:02:09;28.45;;;11.55;;
85506;SDS011;75915;41.988;21.460;2024-03-22T06:04:34;30.65;;;11.93;;
85506;SDS011;75915;41.988;21.460;2024-03-22T06:07:02;22.33;;;10.13;;
85506;SDS011;75915;41.988;21.460;2024-03-22T06:09:29;28.02;;;11.88;;
85506;SDS011;75915;41.988;21.460;2024-03-22T06:12:12;23.77;;;11.65;;
85506;SDS011;75915;41.988;21.460;2024-03-22T06:14:42;24.95;;;11.43;;
85506;SDS011;75915;41.988;21.460;2024-03-22T06:17:08;25.85;;;11.57;;
85506;SDS011;75915;41.988;21.460;2024-03-22T06:19:34;28.73;;;12.75;;
85506;SDS011;75915;41.988;21.460;2024-03-22T06:22:00;40.58;;;23.48;;
85506;SDS011;75915;41.988;21.460;2024-03-22T06:24:32;27.17;;;10.38;;
85506;SDS011;75915;41.988;21.460;2024-03-22T06:26:58;29.40;;;16.85;;
85506;SDS011;75915;41.988;21.460;2024-03-22T06:29:24;23.92;;;12.15;;
85506;SDS011;75915;41.988;21.460;2024-03-22T06:31:49;25.33;;;11.13;;
85506;SDS011;75915;41.988;21.460;2024-03-22T06:34:15;24.90;;;9.93;;
85506;SDS011;75915;41.988;21.460;2024-03-22T06:36:41;25.27;;;10.52;;
85506;SDS011;75915;41.988;21.460;2024-03-22T06:39:07;16.95;;;8.25;;
85506;SDS011;75915;41.988;21.460;2024-03-22T06:41:34;21.67;;;9.50;;
85506;SDS011;75915;41.988;21.460;2024-03-22T06:44:04;23.38;;;9.05;;
85506;SDS011;75915;41.988;21.460;2024-03-22T06:48:57;29.30;;;11.20;;
85506;SDS011;75915;41.988;21.460;2024-03-22T06:51:23;22.75;;;9.98;;
85506;SDS011;75915;41.988;21.460;2024-03-22T06:53:48;20.27;;;9.52;;
85506;SDS011;75915;41.988;21.460;2024-03-22T06:56:15;23.52;;;9.63;;
85506;SDS011;75915;41.988;21.460;2024-03-22T06:58:40;22.95;;;9.75;;
85506;SDS011;75915;41.988;21.460;2024-03-22T07:01:07;22.65;;;9.43;;
85506;SDS011;75915;41.988;21.460;2024-03-22T07:03:34;22.25;;;9.40;;
85506;SDS011;75915;41.988;21.460;2024-03-22T07:06:00;19.50;;;9.23;;
85506;SDS011;75915;41.988;21.460;2024-03-22T07:08:28;17.35;;;8.55;;
85506;SDS011;75915;41.988;21.460;2024-03-22T07:10:54;21.45;;;9.80;;
85506;SDS011;75915;41.988;21.460;2024-03-22T07:13:19;25.98;;;9.40;;
85506;SDS011;75915;41.988;21.460;2024-03-22T07:15:45;24.98;;;8.90;;
85506;SDS011;75915;41.988;21.460;2024-03-22T07:18:16;20.38;;;8.55;;
85506;SDS011;75915;41.988;21.460;2024-03-22T07:20:45;15.35;;;8.32;;
85506;SDS011;75915;41.988;21.460;2024-03-22T07:23:10;22.85;;;9.00;;
85506;SDS011;75915;41.988;21.460;2024-03-22T07:25:36;21.70;;;8.20;;
85506;SDS011;75915;41.988;21.460;2024-03-22T07:28:02;19.33;;;9.35;;
85506;SDS011;75915;41.988;21.460;2024-03-22T07:30:27;21.33;;;9.57;;
85506;SDS011;75915;41.988;21.460;2024-03-22T07:32:53;16.45;;;7.90;;
85506;SDS011;75915;41.988;21.460;2024-03-22T07:35:19;20.70;;;7.72;;
85506;SDS011;75915;41.988;21.460;2024-03-22T07:37:44;17.88;;;8.30;;
85506;SDS011;75915;41.988;21.460;2024-03-22T07:40:10;16.30;;;8.23;;
85506;SDS011;75915;41.988;21.460;2024-03-22T07:42:37;16.50;;;8.70;;
85506;SDS011;75915;41.988;21.460;2024-03-22T07:45:03;18.58;;;8.63;;
85506;SDS011;75915;41.988;21.460;2024-03-22T07:47:29;23.10;;;7.72;;
85506;SDS011;75915;41.988;21.460;2024-03-22T07:49:55;20.45;;;8.57;;
85506;SDS011;75915;41.988;21.460;2024-03-22T07:52:21;14.40;;;7.00;;
85506;SDS011;75915;41.988;21.460;2024-03-22T07:54:48;21.73;;;8.48;;
85506;SDS011;75915;41.988;21.460;2024-03-22T07:57:14;16.20;;;8.00;;
85506;SDS011;75915;41.988;21.460;2024-03-22T07:59:40;18.85;;;8.35;;
85506;SDS011;75915;41.988;21.460;2024-03-22T08:02:09;22.00;;;7.35;;
85506;SDS011;75915;41.988;21.460;2024-03-22T08:04:34;16.30;;;8.05;;
85506;SDS011;75915;41.988;21.460;2024-03-22T08:07:00;18.30;;;8.05;;
85506;SDS011;75915;41.988;21.460;2024-03-22T08:09:26;16.60;;;7.50;;
85506;SDS011;75915;41.988;21.460;2024-03-22T08:11:52;14.32;;;7.55;;
85506;SDS011;75915;41.988;21.460;2024-03-22T08:14:17;11.57;;;5.95;;
85506;SDS011;75915;41.988;21.460;2024-03-22T08:16:45;16.02;;;7.72;;
85506;SDS011;75915;41.988;21.460;2024-03-22T08:19:11;17.60;;;7.13;;
85506;SDS011;75915;41.988;21.460;2024-03-22T08:21:36;14.05;;;6.97;;
85506;SDS011;75915;41.988;21.460;2024-03-22T08:26:28;19.35;;;7.60;;
85506;SDS011;75915;41.988;21.460;2024-03-22T08:28:55;17.60;;;7.70;;
85506;SDS011;75915;41.988;21.460;2024-03-22T08:31:22;16.95;;;7.53;;
85506;SDS011;75915;41.988;21.460;2024-03-22T08:33:52;17.45;;;7.47;;
85506;SDS011;75915;41.988;21.460;2024-03-22T08:36:17;18.63;;;7.60;;
85506;SDS011;75915;41.988;21.460;2024-03-22T08:38:43;19.00;;;7.82;;
85506;SDS011;75915;41.988;21.460;2024-03-22T08:41:09;19.00;;;8.20;;
85506;SDS011;75915;41.988;21.460;2024-03-22T08:43:35;18.77;;;7.20;;
85506;SDS011;75915;41.988;21.460;2024-03-22T08:46:02;16.20;;;7.90;;
85506;SDS011;75915;41.988;21.460;2024-03-22T08:48:28;16.77;;;7.40;;
85506;SDS011;75915;41.988;21.460;2024-03-22T08:50:54;16.73;;;8.82;;
85506;SDS011;75915;41.988;21.460;2024-03-22T08:53:20;19.92;;;7.47;;
85506;SDS011;75915;41.988;21.460;2024-03-22T08:55:47;16.48;;;7.97;;
85506;SDS011;75915;41.988;21.460;2024-03-22T08:58:16;16.55;;;7.32;;
85506;SDS011;75915;41.988;21.460;2024-03-22T09:00:43;15.15;;;7.65;;
85506;SDS011;75915;41.988;21.460;2024-03-22T09:03:09;14.02;;;7.20;;
85506;SDS011;75915;41.988;21.460;2024-03-22T09:05:37;19.60;;;7.15;;
85506;SDS011;75915;41.988;21.460;2024-03-22T09:10:29;16.65;;;7.32;;
85506;SDS011;75915;41.988;21.460;2024-03-22T09:12:55;15.35;;;7.10;;
85506;SDS011;75915;41.988;21.460;2024-03-22T09:15:21;19.75;;;6.97;;
85506;SDS011;75915;41.988;21.460;2024-03-22T09:17:48;23.00;;;7.22;;
85506;SDS011;75915;41.988;21.460;2024-03-22T09:20:14;18.55;;;7.38;;
85506;SDS011;75915;41.988;21.460;2024-03-22T09:22:40;15.75;;;7.53;;
85506;SDS011;75915;41.988;21.460;2024-03-22T09:25:07;19.92;;;7.28;;
85506;SDS011;75915;41.988;21.460;2024-03-22T09:27:34;13.57;;;6.22;;
85506;SDS011;75915;41.988;21.460;2024-03-22T09:29:59;12.00;;;6.45;;
85506;SDS011;75915;41.988;21.460;2024-03-22T09:32:26;18.02;;;6.55;;
85506;SDS011;75915;41.988;21.460;2024-03-22T09:34:52;13.60;;;6.63;;
85506;SDS011;75915;41.988;21.460;2024-03-22T09:37:17;14.77;;;6.57;;
85506;SDS011;75915;41.988;21.460;2024-03-22T09:42:10;16.63;;;6.80;;
85506;SDS011;75915;41.988;21.460;2024-03-22T09:44:44;21.23;;;8.57;;
85506;SDS011;75915;41.988;21.460;2024-03-22T09:47:14;16.98;;;7.45;;
85506;SDS011;75915;41.988;21.460;2024-03-22T09:49:41;15.00;;;6.97;;
85506;SDS011;75915;41.988;21.460;2024-03-22T09:52:11;15.00;;;6.20;;
85506;SDS011;75915;41.988;21.460;2024-03-22T09:54:40;14.52;;;6.72;;
85506;SDS011;75915;41.988;21.460;2024-03-22T09:57:08;13.10;;;6.65;;
85506;SDS011;75915;41.988;21.460;2024-03-22T09:59:38;19.80;;;7.85;;
85506;SDS011;75915;41.988;21.460;2024-03-22T10:02:04;15.65;;;6.50;;
85506;SDS011;75915;41.988;21.460;2024-03-22T10:04:36;14.07;;;5.80;;
85506;SDS011;75915;41.988;21.460;2024-03-22T10:07:04;15.20;;;6.40;;
85506;SDS011;75915;41.988;21.460;2024-03-22T10:09:30;18.02;;;7.07;;
85506;SDS011;75915;41.988;21.460;2024-03-22T10:12:00;13.27;;;7.13;;
85506;SDS011;75915;41.988;21.460;2024-03-22T10:14:26;15.65;;;5.63;;
85506;SDS011;75915;41.988;21.460;2024-03-22T10:19:21;15.63;;;7.18;;
85506;SDS011;75915;41.988;21.460;2024-03-22T10:21:47;14.57;;;6.20;;
85506;SDS011;75915;41.988;21.460;2024-03-22T10:24:24;15.95;;;6.38;;
85506;SDS011;75915;41.988;21.460;2024-03-22T10:29:15;16.15;;;7.28;;
85506;SDS011;75915;41.988;21.460;2024-03-22T10:34:07;14.93;;;6.47;;
85506;SDS011;75915;41.988;21.460;2024-03-22T10:36:35;17.83;;;6.40;;
85506;SDS011;75915;41.988;21.460;2024-03-22T10:39:01;16.17;;;6.95;;
85506;SDS011;75915;41.988;21.460;2024-03-22T10:41:29;13.38;;;6.70;;
85506;SDS011;75915;41.988;21.460;2024-03-22T10:46:27;16.63;;;6.28;;
85506;SDS011;75915;41.988;21.460;2024-03-22T10:48:55;13.10;;;6.25;;
85506;SDS011;75915;41.988;21.460;2024-03-22T10:51:22;11.50;;;5.80;;
85506;SDS011;75915;41.988;21.460;2024-03-22T10:53:52;17.35;;;6.25;;
85506;SDS011;75915;41.988;21.460;2024-03-22T10:56:19;16.17;;;7.50;;
85506;SDS011;75915;41.988;21.460;2024-03-22T10:58:50;13.27;;;6.18;;
85506;SDS011;75915;41.988;21.460;2024-03-22T11:01:23;13.75;;;6.22;;
85506;SDS011;75915;41.988;21.460;2024-03-22T11:03:50;13.50;;;6.65;;
85506;SDS011;75915;41.988;21.460;2024-03-22T11:08:49;15.27;;;6.68;;
85506;SDS011;75915;41.988;21.460;2024-03-22T11:11:19;14.18;;;6.50;;
85506;SDS011;75915;41.988;21.460;2024-03-22T11:13:47;11.52;;;5.63;;
85506;SDS011;75915;41.988;21.460;2024-03-22T11:16:16;11.30;;;5.85;;
85506;SDS011;75915;41.988;21.460;2024-03-22T11:21:07;16.23;;;6.55;;
85506;SDS011;75915;41.988;21.460;2024-03-22T11:23:36;10.00;;;5.43;;
85506;SDS011;75915;41.988;21.460;2024-03-22T11:26:13;12.13;;;6.22;;
85506;SDS011;75915;41.988;21.460;2024-03-22T11:31:04;11.98;;;5.85;;
85506;SDS011;75915;41.988;21.460;2024-03-22T11:35:58;11.07;;;5.32;;
85506;SDS011;75915;41.988;21.460;2024-03-22T11:38:25;10.85;;;5.85;;
85506;SDS011;75915;41.988;21.460;2024-03-22T11:40:52;14.55;;;6.55;;
85506;SDS011;75915;41.988;21.460;2024-03-22T11:43:20;12.43;;;6.50;;
85506;SDS011;75915;41.988;21.460;2024-03-22T11:45:47;14.50;;;6.70;;
85506;SDS011;75915;41.988;21.460;2024-03-22T11:48:14;13.48;;;6.05;;
85506;SDS011;75915;41.988;21.460;2024-03-22T11:53:05;11.95;;;5.68;;
85506;SDS011;75915;41.988;21.460;2024-03-22T11:57:57;14.20;;;5.85;;
85506;SDS011;75915;41.988;21.460;2024-03-22T12:00:24;10.20;;;5.30;;
85506;SDS011;75915;41.988;21.460;2024-03-22T12:02:51;12.18;;;5.97;;
85506;SDS011;75915;41.988;21.460;2024-03-22T12:05:20;11.50;;;5.60;;
85506;SDS011;75915;41.988;21.460;2024-03-22T12:07:48;12.90;;;5.55;;
85506;SDS011;75915;41.988;21.460;2024-03-22T12:10:13;12.52;;;6.30;;
85506;SDS011;75915;41.988;21.460;2024-03-22T12:12:41;12.05;;;5.97;;
85506;SDS011;75915;41.988;21.460;2024-03-22T12:15:08;18.98;;;6.05;;
85506;SDS011;75915;41.988;21.460;2024-03-22T12:17:35;12.93;;;5.78;;
85506;SDS011;75915;41.988;21.460;2024-03-22T12:20:02;13.60;;;6.40;;
85506;SDS011;75915;41.988;21.460;2024-03-22T12:22:29;12.70;;;6.07;;
85506;SDS011;75915;41.988;21.460;2024-03-22T12:27:22;13.35;;;5.95;;
85506;SDS011;75915;41.988;21.460;2024-03-22T12:29:49;11.07;;;6.68;;
85506;SDS011;75915;41.988;21.460;2024-03-22T12:34:39;16.30;;;5.72;;
85506;SDS011;75915;41.988;21.460;2024-03-22T12:39:32;12.35;;;6.15;;
85506;SDS011;75915;41.988;21.460;2024-03-22T12:44:23;13.70;;;5.03;;
85506;SDS011;75915;41.988;21.460;2024-03-22T12:46:50;12.30;;;5.57;;
85506;SDS011;75915;41.988;21.460;2024-03-22T12:51:41;12.15;;;5.65;;
85506;SDS011;75915;41.988;21.460;2024-03-22T12:56:33;11.90;;;5.22;;
85506;SDS011;75915;41.988;21.460;2024-03-22T12:59:02;11.85;;;5.38;;
85506;SDS011;75915;41.988;21.460;2024-03-22T13:03:57;9.55;;;5.40;;
85506;SDS011;75915;41.988;21.460;2024-03-22T13:06:24;13.02;;;6.30;;
85506;SDS011;75915;41.988;21.460;2024-03-22T13:08:50;9.98;;;5.38;;
85506;SDS011;75915;41.988;21.460;2024-03-22T13:13:45;14.95;;;6.18;;
85506;SDS011;75915;41.988;21.460;2024-03-22T13:16:10;15.55;;;5.85;;
85506;SDS011;75915;41.988;21.460;2024-03-22T13:18:39;13.98;;;5.80;;
85506;SDS011;75915;41.988;21.460;2024-03-22T13:23:30;10.07;;;5.32;;
85506;SDS011;75915;41.988;21.460;2024-03-22T13:28:23;14.73;;;6.35;;
85506;SDS011;75915;41.988;21.460;2024-03-22T13:33:24;11.20;;;5.63;;
85506;SDS011;75915;41.988;21.460;2024-03-22T13:38:14;12.00;;;5.90;;
85506;SDS011;75915;41.988;21.460;2024-03-22T13:40:41;12.82;;;5.57;;
85506;SDS011;75915;41.988;21.460;2024-03-22T13:43:09;11.05;;;5.15;;
85506;SDS011;75915;41.988;21.460;2024-03-22T13:50:35;14.45;;;5.25;;
85506;SDS011;75915;41.988;21.460;2024-03-22T13:55:27;10.10;;;4.97;;
85506;SDS011;75915;41.988;21.460;2024-03-22T14:00:18;12.88;;;5.40;;
85506;SDS011;75915;41.988;21.460;2024-03-22T14:05:10;10.00;;;5.75;;
85506;SDS011;75915;41.988;21.460;2024-03-22T14:07:50;10.90;;;4.93;;
85506;SDS011;75915;41.988;21.460;2024-03-22T14:10:16;13.13;;;5.60;;
85506;SDS011;75915;41.988;21.460;2024-03-22T14:15:10;11.80;;;4.90;;
85506;SDS011;75915;41.988;21.460;2024-03-22T14:17:38;9.90;;;4.97;;
85506;SDS011;75915;41.988;21.460;2024-03-22T14:20:05;9.68;;;4.68;;
85506;SDS011;75915;41.988;21.460;2024-03-22T14:22:38;9.85;;;5.40;;
85506;SDS011;75915;41.988;21.460;2024-03-22T14:25:08;11.50;;;5.03;;
85506;SDS011;75915;41.988;21.460;2024-03-22T14:27:35;20.40;;;6.10;;
85506;SDS011;75915;41.988;21.460;2024-03-22T14:30:01;12.63;;;5.00;;
85506;SDS011;75915;41.988;21.460;2024-03-22T14:32:31;9.48;;;5.28;;
85506;SDS011;75915;41.988;21.460;2024-03-22T14:34:57;12.38;;;4.97;;
85506;SDS011;75915;41.988;21.460;2024-03-22T14:37:24;12.98;;;5.28;;
85506;SDS011;75915;41.988;21.460;2024-03-22T14:39:51;10.60;;;5.15;;
85506;SDS011;75915;41.988;21.460;2024-03-22T14:44:44;11.70;;;4.93;;
85506;SDS011;75915;41.988;21.460;2024-03-22T14:49:36;12.02;;;5.28;;
85506;SDS011;75915;41.988;21.460;2024-03-22T14:52:02;12.23;;;4.53;;
85506;SDS011;75915;41.988;21.460;2024-03-22T14:54:27;8.70;;;4.38;;
85506;SDS011;75915;41.988;21.460;2024-03-22T14:59:21;11.65;;;4.28;;
85506;SDS011;75915;41.988;21.460;2024-03-22T15:04:13;9.65;;;4.50;;
85506;SDS011;75915;41.988;21.460;2024-03-22T15:09:04;8.20;;;4.53;;
85506;SDS011;75915;41.988;21.460;2024-03-22T15:11:36;8.88;;;4.38;;
85506;SDS011;75915;41.988;21.460;2024-03-22T15:16:28;13.38;;;4.13;;
85506;SDS011;75915;41.988;21.460;2024-03-22T15:18:54;9.45;;;4.18;;
85506;SDS011;75915;41.988;21.460;2024-03-22T15:21:21;11.90;;;5.35;;
85506;SDS011;75915;41.988;21.460;2024-03-22T15:26:12;10.45;;;4.50;;
85506;SDS011;75915;41.988;21.460;2024-03-22T15:31:03;7.55;;;4.25;;
85506;SDS011;75915;41.988;21.460;2024-03-22T15:35:54;8.45;;;3.83;;
85506;SDS011;75915;41.988;21.460;2024-03-22T15:38:20;7.28;;;4.43;;
85506;SDS011;75915;41.988;21.460;2024-03-22T15:43:17;10.02;;;4.78;;
85506;SDS011;75915;41.988;21.460;2024-03-22T15:45:45;10.98;;;4.63;;
85506;SDS011;75915;41.988;21.460;2024-03-22T15:48:13;7.80;;;4.00;;
85506;SDS011;75915;41.988;21.460;2024-03-22T15:50:45;10.60;;;4.85;;
85506;SDS011;75915;41.988;21.460;2024-03-22T15:53:15;13.77;;;5.05;;
85506;SDS011;75915;41.988;21.460;2024-03-22T15:55:44;15.02;;;6.00;;
85506;SDS011;75915;41.988;21.460;2024-03-22T15:58:11;12.20;;;5.85;;
85506;SDS011;75915;41.988;21.460;2024-03-22T16:03:02;12.13;;;5.45;;
85506;SDS011;75915;41.988;21.460;2024-03-22T16:05:41;13.13;;;5.28;;
85506;SDS011;75915;41.988;21.460;2024-03-22T16:08:14;10.68;;;4.47;;
85506;SDS011;75915;41.988;21.460;2024-03-22T16:13:05;11.18;;;5.07;;
85506;SDS011;75915;41.988;21.460;2024-03-22T16:17:57;13.57;;;5.72;;
85506;SDS011;75915;41.988;21.460;2024-03-22T16:20:24;40.70;;;15.90;;
85506;SDS011;75915;41.988;21.460;2024-03-22T16:22:52;19.80;;;8.82;;
85506;SDS011;75915;41.988;21.460;2024-03-22T16:27:42;12.60;;;5.90;;